TimePDT,TemperatureF,Dew PointF,Humidity,Sea Level PressureIn,VisibilityMPH,Wind Direction,Wind SpeedMPH,Gust SpeedMPH,PrecipitationIn,Events,Conditions,WindDirDegrees,DateUTC
12:15 AM,48.2,42.8,82,30.09,10.0,NNE,3.5,-,N/A,,Clear,30,2011-10-18 07:15:00
12:35 AM,50.0,42.8,76,30.09,10.0,NE,3.5,-,N/A,,Clear,50,2011-10-18 07:35:00
12:55 AM,51.8,42.8,71,30.08,10.0,Calm,Calm,-,N/A,,Clear,0,2011-10-18 07:55:00
1:15 AM,53.6,42.8,67,30.08,10.0,SE,3.5,-,N/A,,Clear,130,2011-10-18 08:15:00
1:35 AM,51.8,39.2,62,30.07,10.0,SE,5.8,-,N/A,,Clear,140,2011-10-18 08:35:00
1:55 AM,51.8,42.8,71,30.07,10.0,South,4.6,-,N/A,,Clear,170,2011-10-18 08:55:00
2:15 AM,53.6,42.8,67,30.07,10.0,SE,4.6,-,N/A,,Clear,130,2011-10-18 09:15:00
2:35 AM,53.6,42.8,67,30.06,10.0,Calm,Calm,-,N/A,,Clear,0,2011-10-18 09:35:00
2:55 AM,53.6,42.8,67,30.06,10.0,SSE,5.8,-,N/A,,Clear,150,2011-10-18 09:55:00
3:15 AM,53.6,42.8,67,30.05,10.0,SSE,3.5,-,N/A,,Clear,160,2011-10-18 10:15:00
3:35 AM,53.6,42.8,67,30.05,10.0,ESE,6.9,-,N/A,,Clear,120,2011-10-18 10:35:00
3:55 AM,51.8,41.0,67,30.05,10.0,Calm,Calm,-,N/A,,Clear,0,2011-10-18 10:55:00
4:15 AM,53.6,42.8,67,30.04,10.0,SE,4.6,-,N/A,,Clear,130,2011-10-18 11:15:00
4:35 AM,51.8,42.8,71,30.04,10.0,SE,6.9,-,N/A,,Clear,140,2011-10-18 11:35:00
4:55 AM,51.8,42.8,71,30.04,10.0,SSE,6.9,-,N/A,,Clear,160,2011-10-18 11:55:00
5:15 AM,53.6,42.8,67,30.05,10.0,South,5.8,-,N/A,,Clear,170,2011-10-18 12:15:00
5:35 AM,51.8,42.8,71,30.04,10.0,SSE,8.1,-,N/A,,Clear,150,2011-10-18 12:35:00
5:55 AM,51.8,42.8,71,30.04,10.0,SSE,8.1,-,N/A,,Clear,150,2011-10-18 12:55:00
6:15 AM,51.8,42.8,71,30.04,10.0,SSE,6.9,-,N/A,,Clear,160,2011-10-18 13:15:00
6:35 AM,51.8,42.8,71,30.04,10.0,SE,4.6,-,N/A,,Clear,130,2011-10-18 13:35:00
6:55 AM,51.8,42.8,71,30.04,10.0,Calm,Calm,-,N/A,,Clear,0,2011-10-18 13:55:00
7:15 AM,51.8,42.8,71,30.04,10.0,Calm,Calm,-,N/A,,Clear,0,2011-10-18 14:15:00
7:35 AM,51.8,44.6,76,30.04,10.0,Calm,Calm,-,N/A,,Clear,0,2011-10-18 14:35:00
7:55 AM,51.8,42.8,71,30.05,10.0,SE,4.6,-,N/A,,Clear,140,2011-10-18 14:55:00
8:15 AM,51.8,44.6,76,30.05,10.0,SSE,4.6,-,N/A,,Clear,160,2011-10-18 15:15:00
8:35 AM,53.6,44.6,72,30.05,10.0,SSE,5.8,-,N/A,,Clear,160,2011-10-18 15:35:00
8:55 AM,55.4,46.4,72,30.05,10.0,SSE,6.9,-,N/A,,Clear,160,2011-10-18 15:55:00
9:15 AM,57.2,46.4,67,30.06,10.0,SSE,10.4,-,N/A,,Clear,160,2011-10-18 16:15:00
9:35 AM,59.0,46.4,63,30.06,10.0,SSE,10.4,-,N/A,,Clear,150,2011-10-18 16:35:00
9:55 AM,60.8,46.4,59,30.05,10.0,SSE,10.4,-,N/A,,Clear,150,2011-10-18 16:55:00
10:15 AM,62.6,48.2,59,30.05,10.0,SSE,6.9,-,N/A,,Clear,150,2011-10-18 17:15:00
10:35 AM,62.6,48.2,59,30.06,10.0,SSE,6.9,-,N/A,,Clear,150,2011-10-18 17:35:00
10:55 AM,64.4,48.2,56,30.05,10.0,ESE,5.8,-,N/A,,Clear,120,2011-10-18 17:55:00
11:15 AM,68.0,51.8,56,30.05,10.0,ESE,6.9,-,N/A,,Clear,110,2011-10-18 18:15:00
11:35 AM,69.8,51.8,53,30.04,10.0,SE,5.8,-,N/A,,Clear,130,2011-10-18 18:35:00
11:55 AM,71.6,51.8,50,30.03,10.0,ESE,8.1,-,N/A,,Clear,120,2011-10-18 18:55:00
12:15 PM,71.6,51.8,50,30.03,10.0,SE,5.8,-,N/A,,Clear,130,2011-10-18 19:15:00
12:35 PM,73.4,53.6,50,30.03,10.0,East,4.6,-,N/A,,Clear,100,2011-10-18 19:35:00
12:55 PM,75.2,53.6,47,30.02,10.0,East,4.6,-,N/A,,Clear,90,2011-10-18 19:55:00
1:15 PM,75.2,51.8,44,30.02,10.0,NNE,3.5,-,N/A,,Clear,20,2011-10-18 20:15:00
1:35 PM,73.4,51.8,47,30.02,10.0,West,9.2,-,N/A,,Clear,280,2011-10-18 20:35:00
1:55 PM,73.4,51.8,47,30.01,10.0,West,15.0,-,N/A,,Clear,270,2011-10-18 20:55:00
2:15 PM,69.8,51.8,53,30.00,10.0,West,13.8,-,N/A,,Clear,270,2011-10-18 21:15:00
2:35 PM,66.2,51.8,60,30.01,10.0,West,12.7,-,N/A,,Clear,270,2011-10-18 21:35:00
2:55 PM,64.4,51.8,64,30.01,10.0,WNW,6.9,-,N/A,,Clear,290,2011-10-18 21:55:00
3:15 PM,64.4,51.8,64,30.00,10.0,WNW,6.9,-,N/A,,Clear,290,2011-10-18 22:15:00
3:35 PM,66.2,51.8,60,30.00,10.0,NW,5.8,-,N/A,,Clear,310,2011-10-18 22:35:00
3:55 PM,64.4,51.8,64,30.00,10.0,WNW,9.2,-,N/A,,Clear,300,2011-10-18 22:55:00
4:15 PM,64.4,51.8,64,30.00,10.0,WNW,8.1,-,N/A,,Clear,300,2011-10-18 23:15:00
4:35 PM,62.6,51.8,68,30.00,9.0,West,12.7,-,N/A,,Clear,280,2011-10-18 23:35:00
4:55 PM,62.6,50.0,63,29.99,10.0,West,10.4,-,N/A,,Clear,280,2011-10-18 23:55:00
5:15 PM,60.8,50.0,68,29.99,10.0,WNW,9.2,-,N/A,,Clear,300,2011-10-19 00:15:00
5:35 PM,60.8,50.0,68,29.99,9.0,WNW,9.2,-,N/A,,Clear,290,2011-10-19 00:35:00
5:55 PM,59.0,50.0,72,29.99,7.0,WNW,10.4,-,N/A,,Clear,290,2011-10-19 00:55:00
6:15 PM,57.2,50.0,77,29.99,6.0,West,11.5,-,N/A,,Clear,270,2011-10-19 01:15:00
6:35 PM,57.2,48.2,72,29.99,7.0,West,10.4,-,N/A,,Clear,260,2011-10-19 01:35:00
6:55 PM,55.4,48.2,77,29.99,7.0,West,5.8,-,N/A,,Partly Cloudy,280,2011-10-19 01:55:00
7:15 PM,55.4,48.2,77,30.00,5.0,NW,5.8,-,N/A,,Mostly Cloudy,310,2011-10-19 02:15:00
7:35 PM,53.6,48.2,82,30.00,7.0,NNW,4.6,-,N/A,,Mostly Cloudy,340,2011-10-19 02:35:00
7:55 PM,53.6,48.2,82,30.00,8.0,NW,4.6,-,N/A,,Mostly Cloudy,310,2011-10-19 02:55:00
8:15 PM,53.6,48.2,82,30.00,8.0,NW,4.6,-,N/A,,Mostly Cloudy,320,2011-10-19 03:15:00
8:35 PM,53.6,48.2,82,30.00,7.0,NW,3.5,-,N/A,,Scattered Clouds,320,2011-10-19 03:35:00
8:55 PM,53.6,48.2,82,30.01,8.0,North,5.8,-,N/A,,Partly Cloudy,360,2011-10-19 03:55:00
9:15 PM,53.6,48.2,82,30.02,10.0,NNW,6.9,-,N/A,,Clear,340,2011-10-19 04:15:00
9:35 PM,53.6,48.2,82,30.02,7.0,North,4.6,-,N/A,,Partly Cloudy,10,2011-10-19 04:35:00
9:55 PM,53.6,48.2,82,30.02,8.0,NNE,4.6,-,N/A,,Mostly Cloudy,20,2011-10-19 04:55:00
10:15 PM,53.6,48.2,82,30.02,10.0,Calm,Calm,-,N/A,,Overcast,0,2011-10-19 05:15:00
10:35 PM,55.4,48.2,77,30.02,10.0,West,3.5,-,N/A,,Overcast,280,2011-10-19 05:35:00
10:55 PM,55.4,48.2,77,30.02,10.0,WSW,3.5,-,N/A,,Overcast,240,2011-10-19 05:55:00
11:15 PM,55.4,48.2,77,30.02,10.0,SW,4.6,-,N/A,,Overcast,220,2011-10-19 06:15:00
11:35 PM,55.4,48.2,77,30.03,10.0,SSW,10.4,-,N/A,,Overcast,210,2011-10-19 06:35:00
11:55 PM,55.4,48.2,77,30.03,9.0,SSW,8.1,-,N/A,,Overcast,200,2011-10-19 06:55:00